DLH5MJ EPWA-EDDF
Flight info
| Callsign | DLH5MJ |
|---|---|
| Flight time | N/A |
| Altitude | 36000 |
| Route | LOLSI DCT DIBLO DCT INDIG DCT KORUP DCT SULED DCT ROBEL T178 KERAX KERAX5D |
| Aircraft | A320/M-SDE3FGHIRWY/LB1 |
Departure
| Time | 2026-04-30 18:41 |
|---|---|
| Airport | Warsaw Chopin Airport (EPWA) |
Arrival
| Time | N/A |
|---|---|
| Airport | Frankfurt Main Airport (EDDF) |
| Time | Latitude | Longitude | Altitude | Speed | Heading |
|---|---|---|---|---|---|
| 2026-04-30 18:26 | 52.16915 | 20.97218 | 339 ft | 0 kts | 70° |
| 2026-04-30 18:34 | 52.16909 | 20.97193 | 335 ft | 3 kts | 70° |
| 2026-04-30 18:34 | 52.16903 | 20.97160 | 335 ft | 3 kts | 75° |
| 2026-04-30 18:35 | 52.16898 | 20.97128 | 336 ft | 3 kts | 75° |
| 2026-04-30 18:35 | 52.16893 | 20.97096 | 336 ft | 3 kts | 87° |
| 2026-04-30 18:35 | 52.16898 | 20.97067 | 336 ft | 3 kts | 150° |
| 2026-04-30 18:36 | 52.16904 | 20.97061 | 335 ft | 0 kts | 154° |
| 2026-04-30 18:37 | 52.16895 | 20.97069 | 335 ft | 3 kts | 153° |
| 2026-04-30 18:37 | 52.16845 | 20.97114 | 335 ft | 10 kts | 150° |
| 2026-04-30 18:37 | 52.16788 | 20.97166 | 338 ft | 9 kts | 152° |
| 2026-04-30 18:37 | 52.16726 | 20.97219 | 337 ft | 12 kts | 152° |
| 2026-04-30 18:38 | 52.16647 | 20.97287 | 335 ft | 13 kts | 154° |
| 2026-04-30 18:38 | 52.16571 | 20.97384 | 336 ft | 15 kts | 116° |
| 2026-04-30 18:38 | 52.16508 | 20.97610 | 335 ft | 29 kts | 115° |
| 2026-04-30 18:38 | 52.16422 | 20.97914 | 336 ft | 30 kts | 114° |
| 2026-04-30 18:39 | 52.16345 | 20.98187 | 338 ft | 22 kts | 115° |
| 2026-04-30 18:39 | 52.16295 | 20.98360 | 335 ft | 16 kts | 115° |
| 2026-04-30 18:39 | 52.16232 | 20.98460 | 338 ft | 11 kts | 206° |
| 2026-04-30 18:39 | 52.16164 | 20.98417 | 337 ft | 10 kts | 200° |
| 2026-04-30 18:40 | 52.16128 | 20.98354 | 333 ft | 8 kts | 275° |
| 2026-04-30 18:40 | 52.16137 | 20.98268 | 337 ft | 0 kts | 296° |
| 2026-04-30 18:40 | 52.16138 | 20.98266 | 337 ft | 2 kts | 296° |
| 2026-04-30 18:40 | 52.16214 | 20.98001 | 338 ft | 62 kts | 294° |
| 2026-04-30 18:41 | 52.16490 | 20.97010 | 335 ft | 127 kts | 294° |
| 2026-04-30 18:41 | 52.16928 | 20.95453 | 454 ft | 165 kts | 296° |
| 2026-04-30 18:41 | 52.17405 | 20.93780 | 1211 ft | 162 kts | 297° |
| 2026-04-30 18:41 | 52.17889 | 20.92127 | 1921 ft | 165 kts | 297° |
| 2026-04-30 18:42 | 52.18277 | 20.90273 | 2333 ft | 183 kts | 274° |
| 2026-04-30 18:42 | 52.18146 | 20.85876 | 3220 ft | 207 kts | 273° |
| 2026-04-30 18:42 | 52.18171 | 20.83398 | 3589 ft | 230 kts | 274° |
| 2026-04-30 18:45 | 52.18200 | 20.52368 | 10854 ft | 314 kts | 275° |
| 2026-04-30 18:45 | 52.18189 | 20.48672 | 11070 ft | 337 kts | 274° |
| 2026-04-30 18:45 | 52.18175 | 20.44770 | 11261 ft | 359 kts | 274° |
| 2026-04-30 18:46 | 52.18152 | 20.40621 | 11778 ft | 368 kts | 274° |
| 2026-04-30 18:46 | 52.18125 | 20.36403 | 12422 ft | 373 kts | 274° |
| 2026-04-30 18:46 | 52.18098 | 20.32196 | 13086 ft | 378 kts | 274° |
| 2026-04-30 18:46 | 52.18070 | 20.27879 | 13750 ft | 383 kts | 274° |
| 2026-04-30 18:47 | 52.18043 | 20.23505 | 14383 ft | 387 kts | 274° |
| 2026-04-30 18:47 | 52.18015 | 20.19081 | 14946 ft | 392 kts | 275° |
| 2026-04-30 18:47 | 52.17985 | 20.14613 | 15519 ft | 396 kts | 275° |
| 2026-04-30 18:47 | 52.17954 | 20.10086 | 16094 ft | 400 kts | 275° |
| 2026-04-30 18:48 | 52.17920 | 20.05597 | 16665 ft | 401 kts | 275° |
| 2026-04-30 18:48 | 52.17875 | 20.01147 | 17994 ft | 382 kts | 275° |
| 2026-04-30 18:48 | 52.17832 | 19.96762 | 18394 ft | 396 kts | 275° |
| 2026-04-30 18:48 | 52.17797 | 19.92231 | 18895 ft | 401 kts | 275° |
| 2026-04-30 18:49 | 52.17744 | 19.87667 | 19360 ft | 408 kts | 273° |
| 2026-04-30 18:49 | 52.17413 | 19.82976 | 19494 ft | 425 kts | 267° |
| 2026-04-30 18:49 | 52.16984 | 19.78154 | 19821 ft | 433 kts | 267° |
| 2026-04-30 18:49 | 52.16541 | 19.73271 | 20238 ft | 437 kts | 267° |
| 2026-04-30 18:50 | 52.16092 | 19.68336 | 20680 ft | 441 kts | 267° |
| 2026-04-30 18:50 | 52.15638 | 19.63386 | 21118 ft | 444 kts | 267° |
| 2026-04-30 18:50 | 52.15183 | 19.58440 | 21537 ft | 448 kts | 268° |
| 2026-04-30 18:50 | 52.14722 | 19.53373 | 21961 ft | 451 kts | 268° |
| 2026-04-30 18:51 | 52.14257 | 19.48237 | 22379 ft | 455 kts | 268° |
| 2026-04-30 18:51 | 52.13797 | 19.43210 | 22783 ft | 459 kts | 268° |
| 2026-04-30 18:51 | 52.13320 | 19.38051 | 23191 ft | 462 kts | 268° |
| 2026-04-30 18:51 | 52.12835 | 19.32840 | 23590 ft | 465 kts | 268° |
| 2026-04-30 18:52 | 52.12346 | 19.27615 | 23971 ft | 469 kts | 268° |
| 2026-04-30 18:52 | 52.11851 | 19.22331 | 24297 ft | 472 kts | 268° |
| 2026-04-30 18:52 | 52.11354 | 19.17067 | 24614 ft | 475 kts | 268° |
| 2026-04-30 18:52 | 52.10848 | 19.11735 | 24924 ft | 478 kts | 268° |
| 2026-04-30 18:53 | 52.10337 | 19.06370 | 25245 ft | 481 kts | 268° |
| 2026-04-30 18:53 | 52.09821 | 19.00964 | 25555 ft | 484 kts | 268° |
| 2026-04-30 18:53 | 52.09308 | 18.95597 | 25865 ft | 486 kts | 268° |
| 2026-04-30 18:53 | 52.08785 | 18.90140 | 26172 ft | 489 kts | 268° |
| 2026-04-30 18:54 | 52.08253 | 18.84655 | 26475 ft | 492 kts | 268° |
| 2026-04-30 18:54 | 52.07712 | 18.79142 | 26776 ft | 495 kts | 268° |
| 2026-04-30 18:54 | 52.07164 | 18.73604 | 27066 ft | 498 kts | 268° |
| 2026-04-30 18:54 | 52.06609 | 18.68027 | 27343 ft | 500 kts | 268° |
| 2026-04-30 18:55 | 52.06049 | 18.62418 | 27616 ft | 503 kts | 268° |
| 2026-04-30 18:55 | 52.04928 | 18.51193 | 28156 ft | 508 kts | 268° |
| 2026-04-30 18:55 | 52.04358 | 18.45507 | 28421 ft | 510 kts | 267° |
| 2026-04-30 18:56 | 52.03211 | 18.34109 | 28937 ft | 515 kts | 267° |
| 2026-04-30 18:56 | 52.02627 | 18.28367 | 29272 ft | 516 kts | 267° |
| 2026-04-30 18:56 | 52.02031 | 18.22602 | 29653 ft | 516 kts | 267° |
| 2026-04-30 18:57 | 52.01030 | 18.13040 | 30266 ft | 515 kts | 267° |
| 2026-04-30 18:57 | 52.00232 | 18.05423 | 30712 ft | 515 kts | 267° |
| 2026-04-30 18:57 | 51.99629 | 17.99676 | 31043 ft | 514 kts | 267° |
| 2026-04-30 18:58 | 51.98592 | 17.90167 | 31619 ft | 513 kts | 266° |
| 2026-04-30 18:58 | 51.97946 | 17.84473 | 31959 ft | 512 kts | 266° |
| 2026-04-30 18:58 | 51.97293 | 17.78786 | 32315 ft | 511 kts | 266° |
| 2026-04-30 18:59 | 51.95985 | 17.67517 | 33013 ft | 509 kts | 266° |
| 2026-04-30 19:00 | 51.94034 | 17.50655 | 34060 ft | 505 kts | 266° |
| 2026-04-30 19:00 | 51.93382 | 17.45059 | 34398 ft | 504 kts | 266° |
| 2026-04-30 19:00 | 51.92076 | 17.33923 | 35015 ft | 501 kts | 265° |
| 2026-04-30 19:01 | 51.90324 | 17.19154 | 35822 ft | 497 kts | 265° |
| 2026-04-30 19:01 | 51.89013 | 17.08193 | 36359 ft | 494 kts | 265° |
| 2026-04-30 19:02 | 51.86369 | 16.86328 | 36400 ft | 495 kts | 264° |
| 2026-04-30 19:03 | 51.80944 | 16.42686 | 36412 ft | 495 kts | 264° |
| 2026-04-30 19:04 | 51.75359 | 15.99099 | 36419 ft | 494 kts | 263° |
| 2026-04-30 19:05 | 51.69607 | 15.55621 | 36424 ft | 505 kts | 263° |
| 2026-04-30 19:06 | 51.64419 | 15.17449 | 36428 ft | 504 kts | 262° |
| 2026-04-30 19:06 | 51.62135 | 15.00949 | 36427 ft | 504 kts | 262° |
| 2026-04-30 19:07 | 51.59811 | 14.84444 | 36424 ft | 504 kts | 262° |
| 2026-04-30 19:08 | 51.56414 | 14.62629 | 36435 ft | 506 kts | 257° |
| 2026-04-30 19:09 | 51.53161 | 14.46457 | 36430 ft | 506 kts | 256° |
| 2026-04-30 19:09 | 51.51027 | 14.35652 | 36437 ft | 510 kts | 257° |
| 2026-04-30 19:10 | 51.46864 | 14.13679 | 36507 ft | 510 kts | 258° |
| 2026-04-30 19:11 | 51.43809 | 13.97570 | 36435 ft | 504 kts | 256° |
| 2026-04-30 19:12 | 51.41636 | 13.87077 | 36494 ft | 512 kts | 255° |
| 2026-04-30 19:12 | 51.40522 | 13.81651 | 36675 ft | 513 kts | 256° |
| 2026-04-30 19:12 | 51.39413 | 13.76209 | 36882 ft | 513 kts | 256° |